sensor_id;sensor_type;location;lat;lon;timestamp;P1;durP1;ratioP1;P2;durP2;ratioP2
16403;SDS011;8311;50.158;8.642;2023-02-11T00:02:14;8.10;;;5.88;;
16403;SDS011;8311;50.158;8.642;2023-02-11T00:05:07;7.35;;;5.28;;
16403;SDS011;8311;50.158;8.642;2023-02-11T00:08:00;8.35;;;5.88;;
16403;SDS011;8311;50.158;8.642;2023-02-11T00:10:55;8.35;;;6.53;;
16403;SDS011;8311;50.158;8.642;2023-02-11T00:13:49;7.32;;;5.72;;
16403;SDS011;8311;50.158;8.642;2023-02-11T00:16:43;8.18;;;6.30;;
16403;SDS011;8311;50.158;8.642;2023-02-11T00:19:36;8.82;;;6.63;;
16403;SDS011;8311;50.158;8.642;2023-02-11T00:22:31;7.88;;;5.82;;
16403;SDS011;8311;50.158;8.642;2023-02-11T00:25:23;7.65;;;5.50;;
16403;SDS011;8311;50.158;8.642;2023-02-11T00:28:18;7.97;;;5.95;;
16403;SDS011;8311;50.158;8.642;2023-02-11T00:31:12;6.93;;;5.57;;
16403;SDS011;8311;50.158;8.642;2023-02-11T00:34:05;7.85;;;6.07;;
16403;SDS011;8311;50.158;8.642;2023-02-11T00:36:58;6.63;;;5.05;;
16403;SDS011;8311;50.158;8.642;2023-02-11T00:39:51;7.57;;;6.00;;
16403;SDS011;8311;50.158;8.642;2023-02-11T00:42:44;9.73;;;6.30;;
16403;SDS011;8311;50.158;8.642;2023-02-11T00:45:39;7.20;;;5.80;;
16403;SDS011;8311;50.158;8.642;2023-02-11T00:48:32;8.85;;;6.15;;
16403;SDS011;8311;50.158;8.642;2023-02-11T00:51:27;7.50;;;5.55;;
16403;SDS011;8311;50.158;8.642;2023-02-11T00:54:20;7.40;;;5.78;;
16403;SDS011;8311;50.158;8.642;2023-02-11T00:57:13;7.30;;;5.63;;
16403;SDS011;8311;50.158;8.642;2023-02-11T01:00:07;6.88;;;5.43;;
16403;SDS011;8311;50.158;8.642;2023-02-11T01:03:03;6.63;;;5.43;;
16403;SDS011;8311;50.158;8.642;2023-02-11T01:05:56;8.43;;;5.90;;
16403;SDS011;8311;50.158;8.642;2023-02-11T01:08:50;8.23;;;5.78;;
16403;SDS011;8311;50.158;8.642;2023-02-11T01:11:42;8.43;;;6.07;;
16403;SDS011;8311;50.158;8.642;2023-02-11T01:14:35;7.78;;;5.60;;
16403;SDS011;8311;50.158;8.642;2023-02-11T01:17:28;6.90;;;5.38;;
16403;SDS011;8311;50.158;8.642;2023-02-11T01:20:23;7.65;;;5.38;;
16403;SDS011;8311;50.158;8.642;2023-02-11T01:23:18;7.93;;;5.50;;
16403;SDS011;8311;50.158;8.642;2023-02-11T01:26:12;7.00;;;5.15;;
16403;SDS011;8311;50.158;8.642;2023-02-11T01:29:05;7.72;;;5.50;;
16403;SDS011;8311;50.158;8.642;2023-02-11T01:32:00;7.25;;;5.03;;
16403;SDS011;8311;50.158;8.642;2023-02-11T01:34:52;6.50;;;4.85;;
16403;SDS011;8311;50.158;8.642;2023-02-11T01:37:46;8.25;;;5.90;;
16403;SDS011;8311;50.158;8.642;2023-02-11T01:40:39;7.30;;;5.05;;
16403;SDS011;8311;50.158;8.642;2023-02-11T01:43:39;8.68;;;5.55;;
16403;SDS011;8311;50.158;8.642;2023-02-11T01:46:34;8.57;;;5.30;;
16403;SDS011;8311;50.158;8.642;2023-02-11T01:49:30;7.75;;;5.70;;
16403;SDS011;8311;50.158;8.642;2023-02-11T01:52:27;7.45;;;5.18;;
16403;SDS011;8311;50.158;8.642;2023-02-11T01:55:28;6.40;;;4.55;;
16403;SDS011;8311;50.158;8.642;2023-02-11T01:58:47;7.25;;;5.03;;
16403;SDS011;8311;50.158;8.642;2023-02-11T02:01:43;7.60;;;5.15;;
16403;SDS011;8311;50.158;8.642;2023-02-11T02:04:43;8.27;;;4.90;;
16403;SDS011;8311;50.158;8.642;2023-02-11T02:07:43;8.52;;;4.85;;
16403;SDS011;8311;50.158;8.642;2023-02-11T02:10:45;7.22;;;4.72;;
16403;SDS011;8311;50.158;8.642;2023-02-11T02:13:39;6.68;;;5.07;;
16403;SDS011;8311;50.158;8.642;2023-02-11T02:16:33;7.38;;;4.97;;
16403;SDS011;8311;50.158;8.642;2023-02-11T02:19:35;6.93;;;5.00;;
16403;SDS011;8311;50.158;8.642;2023-02-11T02:22:52;7.00;;;4.85;;
16403;SDS011;8311;50.158;8.642;2023-02-11T02:29:44;6.25;;;4.55;;
16403;SDS011;8311;50.158;8.642;2023-02-11T02:33:12;6.97;;;5.00;;
16403;SDS011;8311;50.158;8.642;2023-02-11T02:36:15;6.28;;;4.70;;
16403;SDS011;8311;50.158;8.642;2023-02-11T02:39:16;7.47;;;5.45;;
16403;SDS011;8311;50.158;8.642;2023-02-11T02:42:12;6.70;;;5.05;;
16403;SDS011;8311;50.158;8.642;2023-02-11T02:45:08;6.35;;;4.32;;
16403;SDS011;8311;50.158;8.642;2023-02-11T02:48:02;6.85;;;4.60;;
16403;SDS011;8311;50.158;8.642;2023-02-11T02:51:00;6.57;;;4.57;;
16403;SDS011;8311;50.158;8.642;2023-02-11T02:54:07;7.72;;;5.45;;
16403;SDS011;8311;50.158;8.642;2023-02-11T02:57:18;8.57;;;5.25;;
16403;SDS011;8311;50.158;8.642;2023-02-11T03:00:22;6.63;;;4.70;;
16403;SDS011;8311;50.158;8.642;2023-02-11T03:03:23;5.88;;;4.45;;
16403;SDS011;8311;50.158;8.642;2023-02-11T03:06:30;6.28;;;4.80;;
16403;SDS011;8311;50.158;8.642;2023-02-11T03:09:30;7.28;;;5.32;;
16403;SDS011;8311;50.158;8.642;2023-02-11T03:12:29;6.53;;;4.60;;
16403;SDS011;8311;50.158;8.642;2023-02-11T03:15:26;6.30;;;4.68;;
16403;SDS011;8311;50.158;8.642;2023-02-11T03:18:21;6.63;;;4.95;;
16403;SDS011;8311;50.158;8.642;2023-02-11T03:21:17;6.35;;;4.55;;
16403;SDS011;8311;50.158;8.642;2023-02-11T03:24:15;5.95;;;4.22;;
16403;SDS011;8311;50.158;8.642;2023-02-11T03:27:14;6.90;;;4.63;;
16403;SDS011;8311;50.158;8.642;2023-02-11T03:30:12;7.93;;;5.03;;
16403;SDS011;8311;50.158;8.642;2023-02-11T03:33:11;6.60;;;4.55;;
16403;SDS011;8311;50.158;8.642;2023-02-11T03:36:10;6.53;;;4.50;;
16403;SDS011;8311;50.158;8.642;2023-02-11T03:39:08;6.32;;;4.50;;
16403;SDS011;8311;50.158;8.642;2023-02-11T03:42:04;6.50;;;4.57;;
16403;SDS011;8311;50.158;8.642;2023-02-11T03:45:02;5.55;;;4.00;;
16403;SDS011;8311;50.158;8.642;2023-02-11T03:47:58;6.43;;;4.35;;
16403;SDS011;8311;50.158;8.642;2023-02-11T03:50:55;6.32;;;4.57;;
16403;SDS011;8311;50.158;8.642;2023-02-11T03:53:51;5.63;;;4.35;;
16403;SDS011;8311;50.158;8.642;2023-02-11T03:56:48;5.70;;;4.40;;
16403;SDS011;8311;50.158;8.642;2023-02-11T03:59:52;6.05;;;4.40;;
16403;SDS011;8311;50.158;8.642;2023-02-11T04:02:48;5.88;;;4.28;;
16403;SDS011;8311;50.158;8.642;2023-02-11T04:05:40;5.82;;;4.20;;
16403;SDS011;8311;50.158;8.642;2023-02-11T04:08:34;5.65;;;3.90;;
16403;SDS011;8311;50.158;8.642;2023-02-11T04:11:26;5.18;;;3.88;;
16403;SDS011;8311;50.158;8.642;2023-02-11T04:14:20;5.38;;;3.75;;
16403;SDS011;8311;50.158;8.642;2023-02-11T04:17:14;5.72;;;4.15;;
16403;SDS011;8311;50.158;8.642;2023-02-11T04:20:08;6.28;;;4.70;;
16403;SDS011;8311;50.158;8.642;2023-02-11T04:23:01;5.50;;;3.80;;
16403;SDS011;8311;50.158;8.642;2023-02-11T04:25:55;5.97;;;4.22;;
16403;SDS011;8311;50.158;8.642;2023-02-11T04:28:49;6.70;;;4.70;;
16403;SDS011;8311;50.158;8.642;2023-02-11T04:31:42;4.90;;;3.67;;
16403;SDS011;8311;50.158;8.642;2023-02-11T04:34:36;5.93;;;4.30;;
16403;SDS011;8311;50.158;8.642;2023-02-11T04:37:29;5.93;;;3.92;;
16403;SDS011;8311;50.158;8.642;2023-02-11T04:40:22;6.13;;;4.30;;
16403;SDS011;8311;50.158;8.642;2023-02-11T04:43:15;5.82;;;4.18;;
16403;SDS011;8311;50.158;8.642;2023-02-11T04:46:09;6.05;;;3.90;;
16403;SDS011;8311;50.158;8.642;2023-02-11T04:49:01;6.60;;;4.50;;
16403;SDS011;8311;50.158;8.642;2023-02-11T04:51:56;5.50;;;4.10;;
16403;SDS011;8311;50.158;8.642;2023-02-11T04:54:50;6.50;;;4.50;;
16403;SDS011;8311;50.158;8.642;2023-02-11T04:57:43;4.55;;;3.50;;
16403;SDS011;8311;50.158;8.642;2023-02-11T05:00:36;6.88;;;4.15;;
16403;SDS011;8311;50.158;8.642;2023-02-11T05:03:29;5.72;;;4.38;;
16403;SDS011;8311;50.158;8.642;2023-02-11T05:06:22;4.82;;;3.45;;
16403;SDS011;8311;50.158;8.642;2023-02-11T05:09:17;6.18;;;4.18;;
16403;SDS011;8311;50.158;8.642;2023-02-11T05:12:09;5.15;;;3.97;;
16403;SDS011;8311;50.158;8.642;2023-02-11T05:15:03;4.78;;;3.95;;
16403;SDS011;8311;50.158;8.642;2023-02-11T05:17:57;6.22;;;3.97;;
16403;SDS011;8311;50.158;8.642;2023-02-11T05:20:50;6.85;;;4.43;;
16403;SDS011;8311;50.158;8.642;2023-02-11T05:23:43;6.68;;;4.10;;
16403;SDS011;8311;50.158;8.642;2023-02-11T05:26:38;5.30;;;3.70;;
16403;SDS011;8311;50.158;8.642;2023-02-11T05:29:31;6.32;;;3.80;;
16403;SDS011;8311;50.158;8.642;2023-02-11T05:32:24;5.38;;;3.45;;
16403;SDS011;8311;50.158;8.642;2023-02-11T05:35:16;5.93;;;4.03;;
16403;SDS011;8311;50.158;8.642;2023-02-11T05:38:09;5.97;;;4.00;;
16403;SDS011;8311;50.158;8.642;2023-02-11T05:41:03;4.18;;;3.30;;
16403;SDS011;8311;50.158;8.642;2023-02-11T05:43:58;5.78;;;4.00;;
16403;SDS011;8311;50.158;8.642;2023-02-11T05:46:51;5.05;;;3.85;;
16403;SDS011;8311;50.158;8.642;2023-02-11T05:49:44;6.03;;;3.85;;
16403;SDS011;8311;50.158;8.642;2023-02-11T05:52:38;5.47;;;4.25;;
16403;SDS011;8311;50.158;8.642;2023-02-11T05:55:31;5.60;;;3.88;;
16403;SDS011;8311;50.158;8.642;2023-02-11T05:58:26;4.90;;;3.65;;
16403;SDS011;8311;50.158;8.642;2023-02-11T06:01:21;5.22;;;3.67;;
16403;SDS011;8311;50.158;8.642;2023-02-11T06:04:14;5.30;;;3.80;;
16403;SDS011;8311;50.158;8.642;2023-02-11T06:07:07;5.50;;;3.83;;
16403;SDS011;8311;50.158;8.642;2023-02-11T06:10:00;5.63;;;4.10;;
16403;SDS011;8311;50.158;8.642;2023-02-11T06:12:53;5.25;;;3.88;;
16403;SDS011;8311;50.158;8.642;2023-02-11T06:15:54;5.15;;;3.60;;
16403;SDS011;8311;50.158;8.642;2023-02-11T06:18:49;5.10;;;3.42;;
16403;SDS011;8311;50.158;8.642;2023-02-11T06:21:42;5.43;;;3.42;;
16403;SDS011;8311;50.158;8.642;2023-02-11T06:24:35;5.35;;;3.65;;
16403;SDS011;8311;50.158;8.642;2023-02-11T06:27:48;5.35;;;3.55;;
16403;SDS011;8311;50.158;8.642;2023-02-11T06:30:41;4.45;;;3.45;;
16403;SDS011;8311;50.158;8.642;2023-02-11T06:33:34;4.43;;;3.08;;
16403;SDS011;8311;50.158;8.642;2023-02-11T06:36:28;5.00;;;3.72;;
16403;SDS011;8311;50.158;8.642;2023-02-11T06:39:20;4.78;;;3.53;;
16403;SDS011;8311;50.158;8.642;2023-02-11T06:42:14;5.82;;;3.80;;
16403;SDS011;8311;50.158;8.642;2023-02-11T06:45:07;5.20;;;3.25;;
16403;SDS011;8311;50.158;8.642;2023-02-11T06:48:01;5.47;;;3.80;;
16403;SDS011;8311;50.158;8.642;2023-02-11T06:50:55;5.63;;;3.75;;
16403;SDS011;8311;50.158;8.642;2023-02-11T06:53:49;5.53;;;3.70;;
16403;SDS011;8311;50.158;8.642;2023-02-11T06:56:43;4.57;;;3.22;;
16403;SDS011;8311;50.158;8.642;2023-02-11T06:59:36;5.72;;;3.55;;
16403;SDS011;8311;50.158;8.642;2023-02-11T07:02:29;5.43;;;3.83;;
16403;SDS011;8311;50.158;8.642;2023-02-11T07:05:22;5.25;;;3.78;;
16403;SDS011;8311;50.158;8.642;2023-02-11T07:08:14;4.90;;;3.70;;
16403;SDS011;8311;50.158;8.642;2023-02-11T07:11:09;4.85;;;3.40;;
16403;SDS011;8311;50.158;8.642;2023-02-11T07:14:04;4.93;;;3.50;;
16403;SDS011;8311;50.158;8.642;2023-02-11T07:16:59;5.85;;;3.35;;
16403;SDS011;8311;50.158;8.642;2023-02-11T07:19:54;6.28;;;3.85;;
16403;SDS011;8311;50.158;8.642;2023-02-11T07:22:48;5.53;;;3.17;;
16403;SDS011;8311;50.158;8.642;2023-02-11T07:25:41;4.82;;;3.22;;
16403;SDS011;8311;50.158;8.642;2023-02-11T07:28:36;4.53;;;3.15;;
16403;SDS011;8311;50.158;8.642;2023-02-11T07:31:30;5.38;;;3.40;;
16403;SDS011;8311;50.158;8.642;2023-02-11T07:34:24;4.28;;;3.35;;
16403;SDS011;8311;50.158;8.642;2023-02-11T07:37:17;4.95;;;3.25;;
16403;SDS011;8311;50.158;8.642;2023-02-11T07:40:11;4.75;;;3.72;;
16403;SDS011;8311;50.158;8.642;2023-02-11T07:43:04;4.53;;;3.20;;
16403;SDS011;8311;50.158;8.642;2023-02-11T07:45:58;4.57;;;3.38;;
16403;SDS011;8311;50.158;8.642;2023-02-11T07:48:54;5.88;;;3.53;;
16403;SDS011;8311;50.158;8.642;2023-02-11T07:51:47;4.68;;;3.35;;
16403;SDS011;8311;50.158;8.642;2023-02-11T07:54:42;4.03;;;2.80;;
16403;SDS011;8311;50.158;8.642;2023-02-11T07:57:35;5.40;;;3.33;;
16403;SDS011;8311;50.158;8.642;2023-02-11T08:00:28;4.50;;;3.28;;
16403;SDS011;8311;50.158;8.642;2023-02-11T08:03:22;5.90;;;3.50;;
16403;SDS011;8311;50.158;8.642;2023-02-11T08:06:16;5.78;;;3.35;;
16403;SDS011;8311;50.158;8.642;2023-02-11T08:09:13;5.35;;;3.53;;
16403;SDS011;8311;50.158;8.642;2023-02-11T08:12:08;4.85;;;3.03;;
16403;SDS011;8311;50.158;8.642;2023-02-11T08:15:01;4.95;;;2.95;;
16403;SDS011;8311;50.158;8.642;2023-02-11T08:17:54;4.32;;;3.03;;
16403;SDS011;8311;50.158;8.642;2023-02-11T08:20:49;4.78;;;3.40;;
16403;SDS011;8311;50.158;8.642;2023-02-11T08:23:43;4.25;;;2.80;;
16403;SDS011;8311;50.158;8.642;2023-02-11T08:26:37;5.60;;;3.75;;
16403;SDS011;8311;50.158;8.642;2023-02-11T08:29:30;5.57;;;3.60;;
16403;SDS011;8311;50.158;8.642;2023-02-11T08:32:23;4.18;;;2.92;;
16403;SDS011;8311;50.158;8.642;2023-02-11T08:35:15;4.90;;;3.15;;
16403;SDS011;8311;50.158;8.642;2023-02-11T08:38:10;4.30;;;3.05;;
16403;SDS011;8311;50.158;8.642;2023-02-11T08:41:04;5.53;;;3.58;;
16403;SDS011;8311;50.158;8.642;2023-02-11T08:43:58;4.93;;;3.60;;
16403;SDS011;8311;50.158;8.642;2023-02-11T08:46:51;4.68;;;3.20;;
16403;SDS011;8311;50.158;8.642;2023-02-11T08:49:45;5.28;;;3.75;;
16403;SDS011;8311;50.158;8.642;2023-02-11T08:52:38;4.68;;;2.78;;
16403;SDS011;8311;50.158;8.642;2023-02-11T08:55:32;5.03;;;3.40;;
16403;SDS011;8311;50.158;8.642;2023-02-11T08:58:26;6.07;;;3.22;;
16403;SDS011;8311;50.158;8.642;2023-02-11T09:01:20;4.55;;;2.83;;
16403;SDS011;8311;50.158;8.642;2023-02-11T09:04:15;4.93;;;3.35;;
16403;SDS011;8311;50.158;8.642;2023-02-11T09:07:08;5.40;;;3.58;;
16403;SDS011;8311;50.158;8.642;2023-02-11T09:10:03;4.65;;;3.03;;
16403;SDS011;8311;50.158;8.642;2023-02-11T09:12:58;4.75;;;2.85;;
16403;SDS011;8311;50.158;8.642;2023-02-11T09:15:52;5.28;;;3.00;;
16403;SDS011;8311;50.158;8.642;2023-02-11T09:18:45;4.90;;;3.40;;
16403;SDS011;8311;50.158;8.642;2023-02-11T09:21:38;5.03;;;3.38;;
16403;SDS011;8311;50.158;8.642;2023-02-11T09:24:31;5.40;;;2.88;;
16403;SDS011;8311;50.158;8.642;2023-02-11T09:27:24;5.15;;;2.95;;
16403;SDS011;8311;50.158;8.642;2023-02-11T09:30:18;5.30;;;3.10;;
16403;SDS011;8311;50.158;8.642;2023-02-11T09:33:12;4.32;;;2.97;;
16403;SDS011;8311;50.158;8.642;2023-02-11T09:36:05;5.05;;;3.20;;
16403;SDS011;8311;50.158;8.642;2023-02-11T09:39:00;4.60;;;2.58;;
16403;SDS011;8311;50.158;8.642;2023-02-11T09:45:24;4.68;;;2.70;;
16403;SDS011;8311;50.158;8.642;2023-02-11T09:48:19;4.20;;;2.85;;
16403;SDS011;8311;50.158;8.642;2023-02-11T09:51:15;4.03;;;2.70;;
16403;SDS011;8311;50.158;8.642;2023-02-11T09:54:12;4.15;;;2.70;;
16403;SDS011;8311;50.158;8.642;2023-02-11T09:57:11;4.18;;;3.00;;
16403;SDS011;8311;50.158;8.642;2023-02-11T10:00:19;4.30;;;2.90;;
16403;SDS011;8311;50.158;8.642;2023-02-11T10:06:39;4.15;;;2.80;;
16403;SDS011;8311;50.158;8.642;2023-02-11T10:09:38;4.88;;;2.80;;
16403;SDS011;8311;50.158;8.642;2023-02-11T10:12:41;5.00;;;2.80;;
16403;SDS011;8311;50.158;8.642;2023-02-11T10:15:44;5.43;;;3.38;;
16403;SDS011;8311;50.158;8.642;2023-02-11T10:22:02;6.88;;;2.90;;
16403;SDS011;8311;50.158;8.642;2023-02-11T10:25:01;4.60;;;2.78;;
16403;SDS011;8311;50.158;8.642;2023-02-11T10:28:10;5.38;;;3.28;;
16403;SDS011;8311;50.158;8.642;2023-02-11T10:31:07;4.10;;;2.40;;
16403;SDS011;8311;50.158;8.642;2023-02-11T10:34:08;4.03;;;2.75;;
16403;SDS011;8311;50.158;8.642;2023-02-11T10:37:03;4.65;;;2.88;;
16403;SDS011;8311;50.158;8.642;2023-02-11T10:39:57;4.78;;;3.15;;
16403;SDS011;8311;50.158;8.642;2023-02-11T10:42:51;4.07;;;2.72;;
16403;SDS011;8311;50.158;8.642;2023-02-11T10:45:46;4.65;;;3.00;;
16403;SDS011;8311;50.158;8.642;2023-02-11T10:48:43;3.55;;;2.53;;
16403;SDS011;8311;50.158;8.642;2023-02-11T10:51:41;4.13;;;2.60;;
16403;SDS011;8311;50.158;8.642;2023-02-11T10:54:35;5.18;;;2.95;;
16403;SDS011;8311;50.158;8.642;2023-02-11T10:57:29;5.22;;;2.80;;
16403;SDS011;8311;50.158;8.642;2023-02-11T11:00:32;6.60;;;3.50;;
16403;SDS011;8311;50.158;8.642;2023-02-11T11:03:31;4.78;;;2.50;;
16403;SDS011;8311;50.158;8.642;2023-02-11T11:06:30;5.13;;;2.88;;
16403;SDS011;8311;50.158;8.642;2023-02-11T11:09:27;3.13;;;2.45;;
16403;SDS011;8311;50.158;8.642;2023-02-11T11:12:26;4.22;;;2.58;;
16403;SDS011;8311;50.158;8.642;2023-02-11T11:15:22;4.80;;;2.80;;
16403;SDS011;8311;50.158;8.642;2023-02-11T11:18:17;4.97;;;3.00;;
16403;SDS011;8311;50.158;8.642;2023-02-11T11:21:15;4.00;;;2.80;;
16403;SDS011;8311;50.158;8.642;2023-02-11T11:24:16;4.10;;;2.38;;
16403;SDS011;8311;50.158;8.642;2023-02-11T11:27:17;4.13;;;2.53;;
16403;SDS011;8311;50.158;8.642;2023-02-11T11:30:13;4.38;;;2.95;;
16403;SDS011;8311;50.158;8.642;2023-02-11T11:33:13;4.28;;;2.92;;
16403;SDS011;8311;50.158;8.642;2023-02-11T11:36:11;4.30;;;2.72;;
16403;SDS011;8311;50.158;8.642;2023-02-11T11:39:16;4.88;;;2.58;;
16403;SDS011;8311;50.158;8.642;2023-02-11T11:42:22;4.07;;;2.72;;
16403;SDS011;8311;50.158;8.642;2023-02-11T11:45:21;5.65;;;2.85;;
16403;SDS011;8311;50.158;8.642;2023-02-11T11:48:17;5.18;;;2.83;;
16403;SDS011;8311;50.158;8.642;2023-02-11T11:51:15;4.10;;;2.60;;
16403;SDS011;8311;50.158;8.642;2023-02-11T11:54:10;4.07;;;2.58;;
16403;SDS011;8311;50.158;8.642;2023-02-11T11:57:16;3.45;;;2.50;;
16403;SDS011;8311;50.158;8.642;2023-02-11T12:00:19;3.85;;;2.60;;
16403;SDS011;8311;50.158;8.642;2023-02-11T12:06:40;3.72;;;2.35;;
16403;SDS011;8311;50.158;8.642;2023-02-11T12:09:46;3.83;;;3.00;;
16403;SDS011;8311;50.158;8.642;2023-02-11T12:12:52;4.35;;;2.47;;
16403;SDS011;8311;50.158;8.642;2023-02-11T12:15:54;5.00;;;2.63;;
16403;SDS011;8311;50.158;8.642;2023-02-11T12:19:06;3.45;;;2.40;;
16403;SDS011;8311;50.158;8.642;2023-02-11T12:22:19;5.05;;;3.00;;
16403;SDS011;8311;50.158;8.642;2023-02-11T12:25:25;4.30;;;2.70;;
16403;SDS011;8311;50.158;8.642;2023-02-11T12:28:23;4.60;;;2.72;;
16403;SDS011;8311;50.158;8.642;2023-02-11T12:31:28;4.35;;;2.70;;
16403;SDS011;8311;50.158;8.642;2023-02-11T12:34:50;4.22;;;2.58;;
16403;SDS011;8311;50.158;8.642;2023-02-11T12:38:04;3.58;;;2.55;;
16403;SDS011;8311;50.158;8.642;2023-02-11T12:41:14;3.78;;;2.45;;
16403;SDS011;8311;50.158;8.642;2023-02-11T12:44:39;3.60;;;2.40;;
16403;SDS011;8311;50.158;8.642;2023-02-11T12:47:46;3.45;;;2.58;;
16403;SDS011;8311;50.158;8.642;2023-02-11T12:50:53;5.93;;;2.90;;
16403;SDS011;8311;50.158;8.642;2023-02-11T12:53:54;3.92;;;2.25;;
16403;SDS011;8311;50.158;8.642;2023-02-11T12:57:01;3.47;;;2.30;;
16403;SDS011;8311;50.158;8.642;2023-02-11T12:59:59;6.18;;;2.65;;
16403;SDS011;8311;50.158;8.642;2023-02-11T13:03:00;4.32;;;2.55;;
16403;SDS011;8311;50.158;8.642;2023-02-11T13:05:57;4.30;;;2.47;;
16403;SDS011;8311;50.158;8.642;2023-02-11T13:08:57;3.38;;;2.42;;
16403;SDS011;8311;50.158;8.642;2023-02-11T13:11:54;4.07;;;2.60;;
16403;SDS011;8311;50.158;8.642;2023-02-11T13:14:49;20.48;;;14.98;;
16403;SDS011;8311;50.158;8.642;2023-02-11T13:17:49;20.92;;;16.20;;
16403;SDS011;8311;50.158;8.642;2023-02-11T13:20:52;18.90;;;13.70;;
16403;SDS011;8311;50.158;8.642;2023-02-11T13:23:51;21.70;;;13.82;;
16403;SDS011;8311;50.158;8.642;2023-02-11T13:26:52;16.27;;;11.57;;
16403;SDS011;8311;50.158;8.642;2023-02-11T13:33:17;13.95;;;10.40;;
16403;SDS011;8311;50.158;8.642;2023-02-11T13:36:17;13.93;;;9.80;;
16403;SDS011;8311;50.158;8.642;2023-02-11T13:39:18;14.13;;;9.18;;
16403;SDS011;8311;50.158;8.642;2023-02-11T13:42:12;15.52;;;8.63;;
16403;SDS011;8311;50.158;8.642;2023-02-11T13:45:15;9.63;;;7.28;;
16403;SDS011;8311;50.158;8.642;2023-02-11T13:48:13;10.60;;;8.10;;
16403;SDS011;8311;50.158;8.642;2023-02-11T13:51:09;12.02;;;6.78;;
16403;SDS011;8311;50.158;8.642;2023-02-11T13:54:07;11.60;;;6.43;;
16403;SDS011;8311;50.158;8.642;2023-02-11T13:57:21;8.35;;;5.70;;
16403;SDS011;8311;50.158;8.642;2023-02-11T14:03:41;7.45;;;4.65;;
16403;SDS011;8311;50.158;8.642;2023-02-11T14:07:28;6.75;;;4.25;;
16403;SDS011;8311;50.158;8.642;2023-02-11T14:10:50;9.90;;;4.75;;
16403;SDS011;8311;50.158;8.642;2023-02-11T14:14:02;7.93;;;4.88;;
16403;SDS011;8311;50.158;8.642;2023-02-11T14:17:16;7.25;;;4.35;;
16403;SDS011;8311;50.158;8.642;2023-02-11T14:23:27;6.63;;;3.40;;
16403;SDS011;8311;50.158;8.642;2023-02-11T14:26:26;6.85;;;3.30;;
16403;SDS011;8311;50.158;8.642;2023-02-11T14:29:27;6.75;;;3.50;;
16403;SDS011;8311;50.158;8.642;2023-02-11T14:32:32;6.43;;;3.67;;
16403;SDS011;8311;50.158;8.642;2023-02-11T14:35:33;5.68;;;3.80;;
16403;SDS011;8311;50.158;8.642;2023-02-11T14:38:33;5.60;;;3.28;;
16403;SDS011;8311;50.158;8.642;2023-02-11T14:41:40;6.75;;;3.70;;
16403;SDS011;8311;50.158;8.642;2023-02-11T14:44:35;6.15;;;3.47;;
16403;SDS011;8311;50.158;8.642;2023-02-11T14:47:29;5.30;;;2.78;;
16403;SDS011;8311;50.158;8.642;2023-02-11T14:50:32;6.43;;;3.47;;
16403;SDS011;8311;50.158;8.642;2023-02-11T14:53:30;5.40;;;2.83;;
16403;SDS011;8311;50.158;8.642;2023-02-11T14:56:26;5.90;;;2.75;;
16403;SDS011;8311;50.158;8.642;2023-02-11T14:59:22;4.68;;;2.85;;
16403;SDS011;8311;50.158;8.642;2023-02-11T15:02:20;6.45;;;3.30;;
16403;SDS011;8311;50.158;8.642;2023-02-11T15:05:18;6.18;;;3.00;;
16403;SDS011;8311;50.158;8.642;2023-02-11T15:08:13;6.32;;;3.30;;
16403;SDS011;8311;50.158;8.642;2023-02-11T15:11:07;5.72;;;3.25;;
16403;SDS011;8311;50.158;8.642;2023-02-11T15:14:06;7.25;;;3.40;;
16403;SDS011;8311;50.158;8.642;2023-02-11T15:17:05;4.43;;;2.70;;
16403;SDS011;8311;50.158;8.642;2023-02-11T15:20:00;5.03;;;3.00;;
16403;SDS011;8311;50.158;8.642;2023-02-11T15:22:56;4.35;;;2.65;;
16403;SDS011;8311;50.158;8.642;2023-02-11T15:25:52;5.45;;;2.67;;
16403;SDS011;8311;50.158;8.642;2023-02-11T15:28:46;4.40;;;3.10;;
16403;SDS011;8311;50.158;8.642;2023-02-11T15:31:42;4.43;;;3.03;;
16403;SDS011;8311;50.158;8.642;2023-02-11T15:34:36;5.03;;;2.85;;
16403;SDS011;8311;50.158;8.642;2023-02-11T15:37:29;4.63;;;2.65;;
16403;SDS011;8311;50.158;8.642;2023-02-11T15:40:23;5.57;;;3.15;;
16403;SDS011;8311;50.158;8.642;2023-02-11T15:43:19;5.80;;;2.88;;
16403;SDS011;8311;50.158;8.642;2023-02-11T15:46:13;4.53;;;2.70;;
16403;SDS011;8311;50.158;8.642;2023-02-11T15:49:12;4.50;;;2.40;;
16403;SDS011;8311;50.158;8.642;2023-02-11T15:52:10;5.20;;;2.72;;
16403;SDS011;8311;50.158;8.642;2023-02-11T15:55:05;5.68;;;2.67;;
16403;SDS011;8311;50.158;8.642;2023-02-11T15:58:04;4.65;;;2.90;;
16403;SDS011;8311;50.158;8.642;2023-02-11T16:00:58;4.30;;;2.53;;
16403;SDS011;8311;50.158;8.642;2023-02-11T16:03:51;3.90;;;2.45;;
16403;SDS011;8311;50.158;8.642;2023-02-11T16:06:44;5.78;;;3.00;;
16403;SDS011;8311;50.158;8.642;2023-02-11T16:09:41;5.97;;;2.67;;
16403;SDS011;8311;50.158;8.642;2023-02-11T16:12:34;3.58;;;2.25;;
16403;SDS011;8311;50.158;8.642;2023-02-11T16:15:28;3.88;;;2.47;;
16403;SDS011;8311;50.158;8.642;2023-02-11T16:18:42;4.68;;;2.97;;
16403;SDS011;8311;50.158;8.642;2023-02-11T16:21:55;5.55;;;2.70;;
16403;SDS011;8311;50.158;8.642;2023-02-11T16:24:52;5.28;;;2.55;;
16403;SDS011;8311;50.158;8.642;2023-02-11T16:27:48;6.00;;;2.60;;
16403;SDS011;8311;50.158;8.642;2023-02-11T16:30:43;4.28;;;2.75;;
16403;SDS011;8311;50.158;8.642;2023-02-11T16:33:36;5.80;;;2.75;;
16403;SDS011;8311;50.158;8.642;2023-02-11T16:36:29;4.82;;;2.63;;
16403;SDS011;8311;50.158;8.642;2023-02-11T16:39:22;6.15;;;2.80;;
16403;SDS011;8311;50.158;8.642;2023-02-11T16:42:16;4.90;;;2.80;;
16403;SDS011;8311;50.158;8.642;2023-02-11T16:45:10;3.72;;;2.38;;
16403;SDS011;8311;50.158;8.642;2023-02-11T16:48:04;5.65;;;2.97;;
16403;SDS011;8311;50.158;8.642;2023-02-11T16:50:58;5.45;;;2.60;;
16403;SDS011;8311;50.158;8.642;2023-02-11T16:53:51;4.07;;;2.45;;
16403;SDS011;8311;50.158;8.642;2023-02-11T16:56:44;4.40;;;2.60;;
16403;SDS011;8311;50.158;8.642;2023-02-11T16:59:39;4.55;;;2.40;;
16403;SDS011;8311;50.158;8.642;2023-02-11T17:02:33;5.90;;;2.70;;
16403;SDS011;8311;50.158;8.642;2023-02-11T17:05:28;5.20;;;2.90;;
16403;SDS011;8311;50.158;8.642;2023-02-11T17:08:33;4.25;;;2.80;;
16403;SDS011;8311;50.158;8.642;2023-02-11T17:11:27;5.32;;;3.03;;
16403;SDS011;8311;50.158;8.642;2023-02-11T17:14:20;5.50;;;2.78;;
16403;SDS011;8311;50.158;8.642;2023-02-11T17:17:15;6.53;;;2.63;;
16403;SDS011;8311;50.158;8.642;2023-02-11T17:20:10;4.93;;;2.45;;
16403;SDS011;8311;50.158;8.642;2023-02-11T17:23:04;6.90;;;2.88;;
16403;SDS011;8311;50.158;8.642;2023-02-11T17:25:57;8.10;;;3.38;;
16403;SDS011;8311;50.158;8.642;2023-02-11T17:28:50;7.53;;;2.88;;
16403;SDS011;8311;50.158;8.642;2023-02-11T17:31:43;4.72;;;2.67;;
16403;SDS011;8311;50.158;8.642;2023-02-11T17:34:37;6.97;;;3.22;;
16403;SDS011;8311;50.158;8.642;2023-02-11T17:37:31;6.88;;;3.15;;
16403;SDS011;8311;50.158;8.642;2023-02-11T17:40:24;4.45;;;2.60;;
16403;SDS011;8311;50.158;8.642;2023-02-11T17:43:17;5.32;;;2.92;;
16403;SDS011;8311;50.158;8.642;2023-02-11T17:46:10;5.35;;;2.85;;
16403;SDS011;8311;50.158;8.642;2023-02-11T17:49:04;4.53;;;2.67;;
16403;SDS011;8311;50.158;8.642;2023-02-11T17:52:00;5.88;;;3.00;;
16403;SDS011;8311;50.158;8.642;2023-02-11T17:54:53;6.05;;;2.78;;
16403;SDS011;8311;50.158;8.642;2023-02-11T17:57:48;6.53;;;2.83;;
16403;SDS011;8311;50.158;8.642;2023-02-11T18:00:41;5.65;;;2.75;;
16403;SDS011;8311;50.158;8.642;2023-02-11T18:03:34;6.78;;;2.70;;
16403;SDS011;8311;50.158;8.642;2023-02-11T18:06:27;5.18;;;2.65;;
16403;SDS011;8311;50.158;8.642;2023-02-11T18:09:22;4.50;;;2.42;;
16403;SDS011;8311;50.158;8.642;2023-02-11T18:12:16;5.43;;;2.67;;
16403;SDS011;8311;50.158;8.642;2023-02-11T18:15:15;6.03;;;2.92;;
16403;SDS011;8311;50.158;8.642;2023-02-11T18:18:08;5.45;;;2.88;;
16403;SDS011;8311;50.158;8.642;2023-02-11T18:21:01;5.22;;;2.30;;
16403;SDS011;8311;50.158;8.642;2023-02-11T18:23:58;7.45;;;2.38;;
16403;SDS011;8311;50.158;8.642;2023-02-11T18:26:58;6.78;;;2.65;;
16403;SDS011;8311;50.158;8.642;2023-02-11T18:29:51;7.03;;;2.45;;